Time;durP1;ratioP1;P1;durP2;ratioP2;P2;SDS_P1;SDS_P2;PMS_P1;PMS_P2;Temp;Humidity;BMP_temperature;BMP_pressure;BME280_temperature;BME280_humidity;BME280_pressure;Samples;Min_cycle;Max_cycle;Signal;HPM_P1;HPM_P2
2023/06/30 00:01:21;;;;;;;;;;;;;;;20.52;66.88;96114.25;5105624;28;19967;-76
2023/06/30 00:03:47;;;;;;;;;;;;;;;20.47;67.11;96110.59;5105103;28;19981;-76
2023/06/30 00:06:12;;;;;;;;;;;;;;;20.45;67.17;96106.59;5105189;28;19999;-76
2023/06/30 00:08:38;;;;;;;;;;;;;;;20.41;67.18;96108.25;5106210;28;19983;-75
2023/06/30 00:11:04;;;;;;;;;;;;;;;20.39;67.42;96097.91;5106093;28;20184;-75
2023/06/30 00:13:30;;;;;;;;;;;;;;;20.38;68.12;96098.19;5104479;28;19934;-82
2023/06/30 00:15:56;;;;;;;;;;;;;;;20.35;68.04;96090.75;5106040;28;19940;-72
2023/06/30 00:18:21;;;;;;;;;;;;;;;20.31;68.67;96095.91;5105636;28;19952;-72
2023/06/30 00:20:47;;;;;;;;;;;;;;;20.28;68.49;96088.47;5105458;28;19937;-72
2023/06/30 00:23:13;;;;;;;;;;;;;;;20.23;68.43;96084.00;5104297;28;19957;-74
2023/06/30 00:25:39;;;;;;;;;;;;;;;20.18;68.55;96070.78;5105281;28;19938;-73
2023/06/30 00:28:05;;;;;;;;;;;;;;;20.15;68.53;96068.69;5105058;28;19966;-72
2023/06/30 00:30:31;;;;;;;;;;;;;;;20.13;69.13;96067.41;5105224;28;19988;-73
2023/06/30 00:32:56;;;;;;;;;;;;;;;20.10;69.54;96066.13;5105294;28;19960;-72
2023/06/30 00:35:22;;;;;;;;;;;;;;;20.06;69.42;96062.44;5105110;28;20136;-74
2023/06/30 00:37:48;;;;;;;;;;;;;;;20.02;69.66;96064.09;5104949;28;20149;-77
2023/06/30 00:40:14;;;;;;;;;;;;;;;19.99;69.92;96060.13;5105609;28;19934;-76
2023/06/30 00:42:40;;;;;;;;;;;;;;;19.98;69.41;96055.09;5105571;28;20210;-76
2023/06/30 00:45:06;;;;;;;;;;;;;;;19.96;69.62;96055.38;5104907;28;20162;-75
2023/06/30 00:47:32;;;;;;;;;;;;;;;19.95;69.76;96048.47;5105784;28;19936;-76
2023/06/30 00:49:58;;;;;;;;;;;;;;;19.92;69.54;96046.38;5104636;28;19944;-73
2023/06/30 00:52:24;;;;;;;;;;;;;;;19.91;69.63;96049.31;5087585;28;19945;-75
2023/06/30 00:54:50;;;;;;;;;;;;;;;19.89;69.67;96049.63;5104774;28;19938;-75
2023/06/30 00:57:16;;;;;;;;;;;;;;;19.87;69.99;96043.81;5105473;28;19977;-76
2023/06/30 00:59:41;;;;;;;;;;;;;;;19.82;70.51;96041.19;5104953;28;19936;-76
2023/06/30 01:02:11;;;;;;;;;;;;;;;19.79;70.25;96039.91;5104128;28;19998;-75
2023/06/30 01:04:42;;;;;;;;;;;;;;;19.76;70.46;96042.34;5105417;28;19967;-76
2023/06/30 01:07:27;;;;;;;;;;;;;;;19.73;70.29;96033.06;5104824;28;19967;-75
2023/06/30 01:09:56;;;;;;;;;;;;;;;19.68;70.88;96039.22;5103431;28;20105;-72
2023/06/30 01:12:22;;;;;;;;;;;;;;;19.65;71.79;96039.00;5104521;28;19948;-73
2023/06/30 01:14:49;;;;;;;;;;;;;;;19.60;71.80;96033.75;5103415;28;19950;-72
2023/06/30 01:17:17;;;;;;;;;;;;;;;19.57;71.71;96028.97;5104117;28;19937;-72
2023/06/30 01:19:44;;;;;;;;;;;;;;;19.55;71.83;96042.59;5087168;28;19943;-73
2023/06/30 01:22:17;;;;;;;;;;;;;;;19.53;72.84;96041.28;5104793;28;19944;-72
2023/06/30 01:24:44;;;;;;;;;;;;;;;19.51;71.07;96033.59;5105147;28;19951;-72
2023/06/30 01:27:12;;;;;;;;;;;;;;;19.46;71.61;96025.66;5104583;28;20115;-71
2023/06/30 01:29:42;;;;;;;;;;;;;;;19.43;71.86;96023.59;5086395;28;20130;-78
2023/06/30 01:32:16;;;;;;;;;;;;;;;19.42;72.46;96016.66;5103096;28;19953;-76
2023/06/30 01:34:46;;;;;;;;;;;;;;;19.42;72.35;96014.00;5103911;28;19941;-77
2023/06/30 01:37:13;;;;;;;;;;;;;;;19.40;71.75;96009.00;5104201;28;19941;-77
2023/06/30 01:39:40;;;;;;;;;;;;;;;19.40;72.03;96006.34;5086080;28;19967;-77
2023/06/30 01:42:06;;;;;;;;;;;;;;;19.39;72.97;96014.59;5103054;28;20227;-74
2023/06/30 01:44:36;;;;;;;;;;;;;;;19.38;72.63;96008.50;5104649;28;19936;-91
2023/06/30 01:47:02;;;;;;;;;;;;;;;19.35;72.70;96009.03;5086951;28;20214;-75
2023/06/30 01:49:28;;;;;;;;;;;;;;;19.34;72.67;96004.81;5103769;28;20144;-76
2023/06/30 01:51:54;;;;;;;;;;;;;;;19.33;73.78;96010.41;5104026;28;20135;-78
2023/06/30 01:54:20;;;;;;;;;;;;;;;19.27;74.17;96005.13;5086024;28;19938;-77
2023/06/30 01:56:49;;;;;;;;;;;;;;;19.24;73.91;95999.63;5103543;28;19944;-77
2023/06/30 01:59:16;;;;;;;;;;;;;;;19.23;73.66;95995.34;5104490;28;19952;-77
2023/06/30 02:01:42;;;;;;;;;;;;;;;19.22;74.50;95999.91;5102713;28;19969;-80
2023/06/30 02:04:09;;;;;;;;;;;;;;;19.20;74.30;95991.41;5104019;28;19998;-73
2023/06/30 02:06:35;;;;;;;;;;;;;;;19.18;74.45;95987.47;5103979;28;19943;-80
2023/06/30 02:09:01;;;;;;;;;;;;;;;19.18;74.10;95990.91;5102802;28;19940;-80
2023/06/30 02:11:27;;;;;;;;;;;;;;;19.16;74.53;95990.41;5103978;28;19992;-80
2023/06/30 02:13:52;;;;;;;;;;;;;;;19.14;74.62;95992.53;5103875;28;19964;-79
2023/06/30 02:16:18;;;;;;;;;;;;;;;19.13;74.26;95998.94;5103928;28;19943;-79
2023/06/30 02:18:44;;;;;;;;;;;;;;;19.11;74.26;96002.94;5102858;28;19959;-82
2023/06/30 02:21:10;;;;;;;;;;;;;;;19.09;73.99;96003.25;5103284;28;19984;-72
2023/06/30 02:23:36;;;;;;;;;;;;;;;19.05;74.14;96007.53;5102840;28;19939;-72
2023/06/30 02:26:01;;;;;;;;;;;;;;;19.03;74.32;96017.66;5103839;28;19951;-76
2023/06/30 02:28:27;;;;;;;;;;;;;;;19.00;74.56;96011.03;5103925;28;19979;-76
2023/06/30 02:30:54;;;;;;;;;;;;;;;18.98;74.83;96015.84;5107588;28;19932;-76
2023/06/30 02:33:20;;;;;;;;;;;;;;;18.95;74.97;96021.72;5107506;28;19960;-76
2023/06/30 02:35:46;;;;;;;;;;;;;;;18.93;75.47;96015.88;5107973;28;19939;-76
2023/06/30 02:38:11;;;;;;;;;;;;;;;18.93;75.03;96015.88;5107700;28;19966;-76
2023/06/30 02:40:37;;;;;;;;;;;;;;;18.92;74.86;96014.31;5107463;28;19932;-73
2023/06/30 02:43:03;;;;;;;;;;;;;;;18.92;75.66;96014.31;5106583;28;19941;-73
2023/06/30 02:45:29;;;;;;;;;;;;;;;18.92;75.12;96013.50;5106698;28;19944;-73
2023/06/30 02:47:55;;;;;;;;;;;;;;;18.92;75.85;96014.31;5089943;28;19943;-73
2023/06/30 02:50:27;;;;;;;;;;;;;;;18.92;75.78;96008.19;5089954;28;19945;-75
2023/06/30 02:52:53;;;;;;;;;;;;;;;18.92;78.05;96018.81;5108060;28;19949;-75
2023/06/30 02:55:19;;;;;;;;;;;;;;;18.91;76.46;96003.97;5107520;28;19940;-75
2023/06/30 02:57:45;;;;;;;;;;;;;;;18.90;76.41;96003.19;5107276;28;19947;-77
2023/06/30 03:00:11;;;;;;;;;;;;;;;18.91;75.93;95996.78;5105855;28;19968;-72
2023/06/30 03:02:37;;;;;;;;;;;;;;;18.92;75.89;95995.72;5106458;28;19937;-74
2023/06/30 03:05:04;;;;;;;;;;;;;;;18.94;76.30;95998.06;5106016;28;19943;-74
2023/06/30 03:07:30;;;;;;;;;;;;;;;18.93;75.89;95993.84;5088924;28;19958;-73
2023/06/30 03:09:56;;;;;;;;;;;;;;;18.92;76.77;95997.56;5089554;28;19944;-74
2023/06/30 03:12:22;;;;;;;;;;;;;;;18.92;76.97;95992.25;5106322;28;19940;-74
2023/06/30 03:14:48;;;;;;;;;;;;;;;18.90;76.99;95981.94;5105700;28;19933;-74
2023/06/30 03:17:13;;;;;;;;;;;;;;;18.90;76.70;95976.63;5088748;28;19941;-73
2023/06/30 03:19:39;;;;;;;;;;;;;;;18.90;76.76;95978.47;5105563;28;20259;-85
2023/06/30 03:22:05;;;;;;;;;;;;;;;18.86;76.97;95987.00;5088612;28;19945;-82
2023/06/30 03:24:31;;;;;;;;;;;;;;;18.86;77.00;95997.63;5105539;28;19937;-83
2023/06/30 03:26:57;;;;;;;;;;;;;;;18.84;76.95;96001.66;5106534;28;19962;-82
2023/06/30 03:29:23;;;;;;;;;;;;;;;18.82;77.63;95998.47;5089232;28;19938;-86
2023/06/30 03:31:49;;;;;;;;;;;;;;;18.78;77.87;96006.22;5106902;28;19996;-82
2023/06/30 03:34:15;;;;;;;;;;;;;;;18.75;77.56;96012.06;5106047;28;19942;-83
2023/06/30 03:36:40;;;;;;;;;;;;;;;18.74;78.79;96022.97;5105266;28;19979;-71
2023/06/30 03:39:06;;;;;;;;;;;;;;;18.69;79.86;96021.16;5105804;28;19958;-72
2023/06/30 03:41:32;;;;;;;;;;;;;;;18.59;79.14;96010.63;5104334;28;19950;-72
2023/06/30 03:43:58;;;;;;;;;;;;;;;18.57;79.66;96018.06;5105846;28;19938;-72
2023/06/30 03:46:24;;;;;;;;;;;;;;;18.57;80.92;96020.72;5088952;28;19947;-72
2023/06/30 03:48:50;;;;;;;;;;;;;;;18.58;80.08;96019.66;5105833;28;20101;-72
2023/06/30 03:51:16;;;;;;;;;;;;;;;18.60;80.94;96020.16;5104951;28;19937;-72
2023/06/30 03:53:42;;;;;;;;;;;;;;;18.61;80.62;96017.22;5105016;28;19941;-73
2023/06/30 03:56:08;;;;;;;;;;;;;;;18.65;80.57;96017.47;5087983;28;19946;-72
2023/06/30 03:58:34;;;;;;;;;;;;;;;18.66;80.76;96022.47;5087853;28;19967;-71
2023/06/30 04:01:00;;;;;;;;;;;;;;;18.69;80.12;96017.69;5105626;28;19995;-71
2023/06/30 04:03:26;;;;;;;;;;;;;;;18.70;80.10;96016.63;5104701;28;19950;-71
2023/06/30 04:05:53;;;;;;;;;;;;;;;18.72;81.28;96022.44;5105428;28;19934;-71
2023/06/30 04:08:19;;;;;;;;;;;;;;;18.73;81.50;96019.53;5105757;28;19941;-70
2023/06/30 04:10:45;;;;;;;;;;;;;;;18.73;82.73;96021.38;5106225;28;20218;-72
2023/06/30 04:13:18;;;;;;;;;;;;;;;18.71;89.91;96021.66;5105642;28;20256;-74
2023/06/30 04:15:44;;;;;;;;;;;;;;;18.64;88.03;96013.22;5105343;28;20118;-94
2023/06/30 04:18:10;;;;;;;;;;;;;;;18.57;89.96;96007.44;5105714;28;19960;-89
2023/06/30 04:20:36;;;;;;;;;;;;;;;18.53;90.51;96001.13;5105272;28;19962;-92
2023/06/30 04:23:02;;;;;;;;;;;;;;;18.52;95.29;95999.50;5105474;28;19941;-85
2023/06/30 04:25:28;;;;;;;;;;;;;;;18.48;92.79;96003.78;5087467;28;19938;-85
2023/06/30 04:27:54;;;;;;;;;;;;;;;18.46;94.99;95999.56;5105994;28;19952;-78
2023/06/30 04:30:20;;;;;;;;;;;;;;;18.44;96.01;95996.41;5104329;28;19942;-71
2023/06/30 04:32:46;;;;;;;;;;;;;;;18.42;96.86;96001.19;5104707;28;20143;-87
2023/06/30 04:35:12;;;;;;;;;;;;;;;18.39;97.33;95999.09;5105252;28;19948;-73
2023/06/30 04:37:40;;;;;;;;;;;;;;;18.38;97.32;95999.38;5105407;28;19937;-73
2023/06/30 04:40:08;;;;;;;;;;;;;;;18.37;97.43;96008.41;5087032;28;20159;-76
2023/06/30 04:42:34;;;;;;;;;;;;;;;18.36;99.51;96022.75;5105166;28;19959;-75
2023/06/30 04:45:00;;;;;;;;;;;;;;;18.33;100.00;96024.13;5104744;28;20007;-78
2023/06/30 04:47:29;;;;;;;;;;;;;;;18.28;100.00;96023.34;5086961;28;20250;-74
2023/06/30 04:49:56;;;;;;;;;;;;;;;18.20;100.00;96022.84;5104605;28;19965;-76
2023/06/30 04:52:22;;;;;;;;;;;;;;;18.19;100.00;96023.16;5104517;28;19943;-72
2023/06/30 04:54:48;;;;;;;;;;;;;;;18.19;100.00;96023.94;5086700;28;19944;-72
2023/06/30 04:57:14;;;;;;;;;;;;;;;18.21;100.00;96021.03;5103972;28;19940;-71
2023/06/30 04:59:40;;;;;;;;;;;;;;;18.17;100.00;96015.47;5103433;28;19970;-71
2023/06/30 05:02:06;;;;;;;;;;;;;;;18.14;100.00;96010.72;5087288;28;20140;-72
2023/06/30 05:04:32;;;;;;;;;;;;;;;18.15;100.00;96003.53;5103923;28;19944;-71
2023/06/30 05:06:58;;;;;;;;;;;;;;;18.15;100.00;96006.97;5104685;28;19947;-76
2023/06/30 05:09:23;;;;;;;;;;;;;;;18.16;100.00;96007.78;5086746;28;20004;-78
2023/06/30 05:11:50;;;;;;;;;;;;;;;18.19;100.00;96009.88;5087413;28;19941;-78
2023/06/30 05:14:16;;;;;;;;;;;;;;;18.20;100.00;96003.50;5103542;28;19941;-78
2023/06/30 05:16:42;;;;;;;;;;;;;;;18.19;100.00;96008.00;5087383;28;20089;-78
2023/06/30 05:19:08;;;;;;;;;;;;;;;18.19;100.00;95996.63;5103864;28;19994;-78
2023/06/30 05:21:34;;;;;;;;;;;;;;;18.18;100.00;95985.19;5103381;28;19946;-80
2023/06/30 05:24:00;;;;;;;;;;;;;;;18.18;100.00;95995.81;5104110;28;19948;-79
2023/06/30 05:26:25;;;;;;;;;;;;;;;18.17;100.00;96012.03;5104480;28;20017;-79
2023/06/30 05:28:51;;;;;;;;;;;;;;;18.12;100.00;96022.66;5087251;28;19938;-78
2023/06/30 05:31:17;;;;;;;;;;;;;;;18.00;100.00;96018.50;5103257;28;19960;-78
2023/06/30 05:33:43;;;;;;;;;;;;;;;17.93;100.00;96027.81;5087188;28;19954;-78
2023/06/30 05:36:09;;;;;;;;;;;;;;;17.83;100.00;96024.19;5104332;28;19935;-76
2023/06/30 05:38:35;;;;;;;;;;;;;;;17.81;100.00;96030.78;5105065;28;20174;-79
2023/06/30 05:41:00;;;;;;;;;;;;;;;17.83;100.00;96026.03;5086190;28;20135;-79
2023/06/30 05:43:26;;;;;;;;;;;;;;;17.87;100.00;96027.09;5087141;28;19936;-75
2023/06/30 05:45:52;;;;;;;;;;;;;;;17.93;100.00;96025.16;5103170;28;20160;-74
2023/06/30 05:48:19;;;;;;;;;;;;;;;17.98;100.00;96017.97;5102981;28;19988;-74
2023/06/30 05:50:45;;;;;;;;;;;;;;;17.99;100.00;95998.31;5104172;28;20153;-74
2023/06/30 05:53:11;;;;;;;;;;;;;;;18.03;100.00;95998.56;5104072;28;20119;-73
2023/06/30 05:55:37;;;;;;;;;;;;;;;18.08;100.00;95998.56;5104375;28;20000;-73
2023/06/30 05:58:03;;;;;;;;;;;;;;;18.12;100.00;95996.94;5104057;28;20014;-73
2023/06/30 06:00:29;;;;;;;;;;;;;;;18.16;100.00;96005.13;5103914;28;19992;-73
2023/06/30 06:02:54;;;;;;;;;;;;;;;18.21;100.00;96021.81;5104038;28;19941;-71
2023/06/30 06:05:20;;;;;;;;;;;;;;;18.26;100.00;96020.97;5107697;28;19940;-73
2023/06/30 06:07:48;;;;;;;;;;;;;;;18.23;100.00;96032.94;5107300;28;19940;-73
2023/06/30 06:10:13;;;;;;;;;;;;;;;18.19;100.00;96042.53;5106894;28;19944;-73
2023/06/30 06:12:39;;;;;;;;;;;;;;;18.22;100.00;96057.09;5107974;28;19939;-73
2023/06/30 06:15:06;;;;;;;;;;;;;;;18.23;100.00;96056.81;5108398;28;19941;-73
2023/06/30 06:17:32;;;;;;;;;;;;;;;18.28;100.00;96060.50;5107932;28;19942;-73
2023/06/30 06:19:58;;;;;;;;;;;;;;;18.31;100.00;96058.09;5108531;28;19951;-73
2023/06/30 06:22:24;;;;;;;;;;;;;;;18.25;100.00;96061.88;5107214;28;19937;-72
2023/06/30 06:24:50;;;;;;;;;;;;;;;18.24;100.00;96074.31;5107733;28;19948;-72
2023/06/30 06:27:15;;;;;;;;;;;;;;;18.17;100.00;96073.84;5107966;28;19942;-72
2023/06/30 06:29:41;;;;;;;;;;;;;;;18.07;100.00;96081.09;5106602;28;19945;-72
2023/06/30 06:32:07;;;;;;;;;;;;;;;17.97;100.00;96087.22;5107545;28;19953;-71
2023/06/30 06:34:34;;;;;;;;;;;;;;;17.96;100.00;96088.31;5107511;28;19927;-72
2023/06/30 06:37:00;;;;;;;;;;;;;;;18.01;100.00;96091.72;5107528;28;19963;-72
2023/06/30 06:39:26;;;;;;;;;;;;;;;18.05;100.00;96086.66;5106298;28;20250;-70
2023/06/30 06:41:52;;;;;;;;;;;;;;;18.16;100.00;96090.03;5108192;28;19946;-78
2023/06/30 06:44:18;;;;;;;;;;;;;;;18.16;100.00;96087.38;5090244;28;20207;-88
2023/06/30 06:46:44;;;;;;;;;;;;;;;18.15;100.00;96091.91;5106371;28;19941;-90
2023/06/30 06:49:10;;;;;;;;;;;;;;;18.11;100.00;96100.69;5107338;28;19948;-88
2023/06/30 06:51:36;;;;;;;;;;;;;;;18.08;100.00;96096.72;5090128;28;19954;-92
2023/06/30 06:54:02;;;;;;;;;;;;;;;18.05;100.00;96095.41;5089950;28;19942;-86
2023/06/30 06:56:28;;;;;;;;;;;;;;;18.05;100.00;96098.06;5106844;28;20213;-85
2023/06/30 06:58:54;;;;;;;;;;;;;;;18.03;100.00;96094.88;5088944;28;20000;-72
2023/06/30 07:01:20;;;;;;;;;;;;;;;18.04;100.00;96095.69;5106952;28;19975;-80
2023/06/30 07:03:46;;;;;;;;;;;;;;;18.07;100.00;96103.09;5106574;28;19944;-79
2023/06/30 07:06:11;;;;;;;;;;;;;;;18.11;100.00;96098.03;5105784;28;20185;-81
2023/06/30 07:08:39;;;;;;;;;;;;;;;18.11;100.00;96103.34;5105804;28;19941;-81
2023/06/30 07:11:06;;;;;;;;;;;;;;;18.16;100.00;96103.31;5107163;28;19941;-80
2023/06/30 07:13:32;;;;;;;;;;;;;;;18.16;100.00;96098.78;5107613;28;20126;-80
2023/06/30 07:15:58;;;;;;;;;;;;;;;18.13;100.00;96099.34;5104425;28;19983;-84
2023/06/30 07:18:24;;;;;;;;;;;;;;;18.15;100.00;96102.53;5088764;28;19939;-83
2023/06/30 07:20:51;;;;;;;;;;;;;;;18.17;100.00;96095.06;5105492;28;20156;-80
2023/06/30 07:23:17;;;;;;;;;;;;;;;18.17;100.00;96097.72;5107168;28;19936;-83
2023/06/30 07:25:43;;;;;;;;;;;;;;;18.18;100.00;96099.31;5105398;28;19951;-82
2023/06/30 07:28:09;;;;;;;;;;;;;;;18.15;100.00;96099.09;5107094;28;19932;-83
2023/06/30 07:30:36;;;;;;;;;;;;;;;18.10;100.00;96104.41;5105422;28;19938;-82
2023/06/30 07:33:02;;;;;;;;;;;;;;;18.12;100.00;96103.09;5106583;28;19956;-84
2023/06/30 07:35:28;;;;;;;;;;;;;;;18.17;100.00;96104.91;5105222;28;19970;-84
2023/06/30 07:37:54;;;;;;;;;;;;;;;18.22;100.00;96107.53;5089147;28;19943;-72
2023/06/30 07:40:19;;;;;;;;;;;;;;;18.26;100.00;96104.03;5105698;28;20013;-72
2023/06/30 07:42:46;;;;;;;;;;;;;;;18.30;100.00;96112.25;5088226;28;19982;-73
2023/06/30 07:45:13;;;;;;;;;;;;;;;18.34;100.00;96110.63;5106837;28;19939;-72
2023/06/30 07:47:42;;;;;;;;;;;;;;;18.36;100.00;96113.81;5106030;28;19937;-72
2023/06/30 07:50:10;;;;;;;;;;;;;;;18.38;100.00;96111.66;5106032;28;20108;-71
2023/06/30 07:52:36;;;;;;;;;;;;;;;18.42;100.00;96122.53;5106029;28;20262;-81
2023/06/30 07:55:04;;;;;;;;;;;;;;;18.42;100.00;96127.84;5104779;28;19947;-76
2023/06/30 07:57:30;;;;;;;;;;;;;;;18.38;100.00;96127.59;5104831;28;19951;-72
2023/06/30 07:59:55;;;;;;;;;;;;;;;18.31;100.00;96127.13;5088267;28;19969;-72
2023/06/30 08:02:21;;;;;;;;;;;;;;;18.26;100.00;96113.88;5106432;28;19943;-71
2023/06/30 08:04:47;;;;;;;;;;;;;;;18.27;100.00;96118.13;5105757;28;19934;-71
2023/06/30 08:07:13;;;;;;;;;;;;;;;18.28;100.00;96127.66;5104674;28;19987;-69
2023/06/30 08:09:39;;;;;;;;;;;;;;;18.28;100.00;96129.53;5105716;28;19941;-71
2023/06/30 08:12:05;;;;;;;;;;;;;;;18.21;100.00;96116.56;5104537;28;19935;-73
2023/06/30 08:14:31;;;;;;;;;;;;;;;18.14;100.00;96116.06;5087580;28;19937;-77
2023/06/30 08:16:57;;;;;;;;;;;;;;;18.04;100.00;96112.41;5105182;28;19935;-75
2023/06/30 08:19:23;;;;;;;;;;;;;;;17.98;100.00;96126.75;5104300;28;19964;-75
2023/06/30 08:21:48;;;;;;;;;;;;;;;17.95;100.00;96124.63;5105201;28;19975;-75
2023/06/30 08:24:14;;;;;;;;;;;;;;;17.91;100.00;96123.63;5105416;28;20260;-75
2023/06/30 08:26:40;;;;;;;;;;;;;;;17.83;100.00;96127.63;5087712;28;19943;-76
2023/06/30 08:29:06;;;;;;;;;;;;;;;17.76;100.00;96120.97;5088089;28;19948;-73
2023/06/30 08:31:32;;;;;;;;;;;;;;;17.80;100.00;96122.03;5104128;28;20249;-71
2023/06/30 08:33:58;;;;;;;;;;;;;;;17.81;100.00;96119.09;5087980;28;20180;-75
2023/06/30 08:36:24;;;;;;;;;;;;;;;17.85;100.00;96120.19;5104678;28;19948;-75
2023/06/30 08:38:49;;;;;;;;;;;;;;;17.89;100.00;96119.63;5103965;28;20239;-76
2023/06/30 08:41:15;;;;;;;;;;;;;;;17.84;100.00;96109.84;5104805;28;19943;-75
2023/06/30 08:43:42;;;;;;;;;;;;;;;17.83;100.00;96110.91;5087006;28;19951;-75
2023/06/30 08:46:08;;;;;;;;;;;;;;;17.84;100.00;96109.84;5105009;28;20132;-74
2023/06/30 08:48:35;;;;;;;;;;;;;;;17.89;100.00;96099.22;5087726;28;19944;-78
2023/06/30 08:51:02;;;;;;;;;;;;;;;17.98;100.00;96097.56;5104691;28;19965;-82
2023/06/30 08:53:29;;;;;;;;;;;;;;;18.05;100.00;96092.75;5105409;28;19941;-80
2023/06/30 08:55:56;;;;;;;;;;;;;;;18.12;100.00;96084.50;5104920;28;19949;-82
2023/06/30 08:58:22;;;;;;;;;;;;;;;18.18;100.00;96094.00;5104457;28;19943;-82
2023/06/30 09:00:48;;;;;;;;;;;;;;;18.28;100.00;96105.63;5103658;28;19983;-81
2023/06/30 09:03:14;;;;;;;;;;;;;;;18.35;100.00;96112.22;5103691;28;19947;-81
2023/06/30 09:05:42;;;;;;;;;;;;;;;18.41;100.00;96103.13;5103958;28;21136;-82
2023/06/30 09:08:16;;;;;;;;;;;;;;;18.48;100.00;96097.53;5104588;28;20259;-72
2023/06/30 09:10:42;;;;;;;;;;;;;;;18.56;100.00;96096.13;5104523;28;19946;-74
2023/06/30 09:13:09;;;;;;;;;;;;;;;18.60;100.00;96083.91;5104466;28;19948;-73
2023/06/30 09:15:35;;;;;;;;;;;;;;;18.66;100.00;96091.53;5105099;28;19942;-73
2023/06/30 09:18:01;;;;;;;;;;;;;;;18.71;100.00;96085.41;5103381;28;19945;-74
2023/06/30 09:20:27;;;;;;;;;;;;;;;18.75;100.00;96089.09;5105160;28;20233;-74
2023/06/30 09:22:53;;;;;;;;;;;;;;;18.75;100.00;96088.28;5104401;28;19938;-75
2023/06/30 09:25:37;;;;;;;;;;;;;;;18.79;100.00;96092.81;5103232;28;19942;-81
2023/06/30 09:28:07;;;;;;;;;;;;;;;18.83;100.00;96083.19;5087178;28;19947;-75
2023/06/30 09:30:38;;;;;;;;;;;;;;;18.91;100.00;96087.13;5104032;28;20200;-75
2023/06/30 09:33:08;;;;;;;;;;;;;;;18.98;100.00;96090.25;5103229;28;19977;-76
2023/06/30 09:35:41;;;;;;;;;;;;;;;19.00;100.00;96084.63;5086325;28;20138;-76
2023/06/30 09:38:17;;;;;;;;;;;;;;;19.01;100.00;96091.56;5103160;28;20373;-76
2023/06/30 09:40:46;;;;;;;;;;;;;;;19.04;100.00;96101.63;5104656;28;20004;-77
2023/06/30 09:43:16;;;;;;;;;;;;;;;19.01;100.00;96091.56;5104757;28;19940;-81
2023/06/30 09:45:42;;;;;;;;;;;;;;;18.99;100.00;96094.47;5099643;28;20107;-83
2023/06/30 09:48:10;;;;;;;;;;;;;;;19.00;100.00;96101.41;5103678;28;19949;-72
2023/06/30 09:50:36;;;;;;;;;;;;;;;19.04;100.00;96098.97;5104112;28;19944;-72
2023/06/30 09:53:01;;;;;;;;;;;;;;;19.05;100.00;96096.03;5104868;28;20108;-74
2023/06/30 09:55:27;;;;;;;;;;;;;;;19.05;100.00;96100.56;5102984;28;20254;-72
2023/06/30 09:57:55;;;;;;;;;;;;;;;19.09;100.00;96104.25;5102895;28;19948;-73
2023/06/30 10:00:22;;;;;;;;;;;;;;;19.13;100.00;96107.91;5103817;28;19971;-72
2023/06/30 10:03:05;;;;;;;;;;;;;;;19.16;100.00;96112.66;5104810;28;19944;-74
2023/06/30 10:05:31;;;;;;;;;;;;;;;19.19;100.00;96113.97;5104897;28;19940;-87
2023/06/30 10:08:01;;;;;;;;;;;;;;;19.21;100.00;96112.63;5103440;28;19936;-86
2023/06/30 10:10:27;;;;;;;;;;;;;;;19.23;100.00;96118.47;5102855;28;20228;-86
2023/06/30 10:12:54;;;;;;;;;;;;;;;19.22;100.00;96113.41;5085986;28;19964;-88
2023/06/30 10:15:20;;;;;;;;;;;;;;;19.23;100.00;96120.31;5103943;28;19945;-88
2023/06/30 10:17:47;;;;;;;;;;;;;;;19.23;100.00;96115.81;5102895;28;19938;-88
2023/06/30 10:20:13;;;;;;;;;;;;;;;19.22;100.00;96119.53;5085866;28;19984;-72
2023/06/30 10:22:39;;;;;;;;;;;;;;;19.21;100.00;96115.28;5103934;28;20000;-73
2023/06/30 10:25:07;;;;;;;;;;;;;;;19.25;100.00;96120.81;5102688;28;20138;-72
2023/06/30 10:27:33;;;;;;;;;;;;;;;19.26;100.00;96120.53;5103278;28;20136;-72
2023/06/30 10:29:59;;;;;;;;;;;;;;;19.32;100.00;96121.28;5102629;28;19941;-72
2023/06/30 10:32:25;;;;;;;;;;;;;;;19.38;100.00;96114.84;5103661;28;19992;-72
2023/06/30 10:34:51;;;;;;;;;;;;;;;19.46;100.00;96116.06;5103670;28;19991;-72
2023/06/30 10:37:17;;;;;;;;;;;;;;;19.49;100.00;96112.88;5104472;28;19949;-72
2023/06/30 10:39:43;;;;;;;;;;;;;;;19.49;100.00;96126.16;5102813;28;19989;-73
2023/06/30 10:42:13;;;;;;;;;;;;;;;19.46;100.00;96116.06;5104456;28;19945;-86
2023/06/30 10:44:43;;;;;;;;;;;;;;;19.44;100.00;96120.88;5103260;28;19940;-86
2023/06/30 10:47:09;;;;;;;;;;;;;;;19.44;100.00;96124.38;5086511;28;20119;-87
2023/06/30 10:49:36;;;;;;;;;;;;;;;19.48;100.00;96125.34;5087044;28;19968;-85
2023/06/30 10:52:03;;;;;;;;;;;;;;;19.51;100.00;96123.22;5107254;28;20239;-87
2023/06/30 10:54:31;;;;;;;;;;;;;;;19.58;100.00;96121.03;5106921;28;20233;-86
2023/06/30 10:57:10;;;;;;;;;;;;;;;19.65;100.00;96113.47;5106102;28;20136;-74
2023/06/30 10:59:43;;;;;;;;;;;;;;;19.74;100.00;96103.03;5105741;28;19980;-74
2023/06/30 11:02:22;;;;;;;;;;;;;;;19.79;100.00;96108.28;5107580;28;19954;-74
2023/06/30 11:04:52;;;;;;;;;;;;;;;19.85;100.00;96104.50;5107557;28;19956;-73
2023/06/30 11:07:22;;;;;;;;;;;;;;;19.90;100.00;96106.28;5107522;28;19937;-73
2023/06/30 11:09:48;;;;;;;;;;;;;;;19.97;100.00;96099.56;5105641;28;19989;-74
2023/06/30 11:12:14;;;;;;;;;;;;;;;20.04;100.00;96102.66;5107407;28;20009;-74
2023/06/30 11:14:52;;;;;;;;;;;;;;;20.08;100.00;96100.22;5106868;28;19944;-84
2023/06/30 11:17:18;;;;;;;;;;;;;;;20.06;100.00;96105.81;5106405;28;19950;-76
2023/06/30 11:20:03;;;;;;;;;;;;;;;20.07;100.00;96107.41;5105583;28;19966;-72
2023/06/30 11:22:32;;;;;;;;;;;;;;;20.06;100.00;96100.50;5088637;28;19944;-71
2023/06/30 11:25:03;;;;;;;;;;;;;;;20.01;100.00;96105.09;5106566;28;19950;-73
2023/06/30 11:27:31;;;;;;;;;;;;;;;19.97;100.00;96106.72;5106560;28;19942;-72
2023/06/30 11:30:00;;;;;;;;;;;;;;;19.96;100.00;96103.28;5106451;28;19946;-70
2023/06/30 11:32:27;;;;;;;;;;;;;;;20.00;100.00;96104.28;5107217;28;19969;-72
2023/06/30 11:34:54;;;;;;;;;;;;;;;20.04;100.00;96092.00;5107245;28;19935;-77
2023/06/30 11:37:20;;;;;;;;;;;;;;;20.07;100.00;96094.09;5105186;28;19942;-82
2023/06/30 11:39:49;;;;;;;;;;;;;;;20.05;100.00;96096.25;5105733;28;19997;-86
2023/06/30 11:42:15;;;;;;;;;;;;;;;20.12;100.00;96098.56;5106307;28;19942;-86
2023/06/30 11:44:41;;;;;;;;;;;;;;;20.16;100.00;96086.25;5106353;28;19960;-86
2023/06/30 11:47:07;;;;;;;;;;;;;;;20.17;100.00;96093.16;5106296;28;19945;-84
2023/06/30 11:49:38;;;;;;;;;;;;;;;20.17;100.00;96092.38;5106513;28;19938;-88
2023/06/30 11:52:04;;;;;;;;;;;;;;;20.18;100.00;96085.94;5105774;28;20086;-71
2023/06/30 11:54:34;;;;;;;;;;;;;;;20.18;100.00;96091.28;5106634;28;19941;-91
2023/06/30 11:57:00;;;;;;;;;;;;;;;20.18;100.00;96088.63;5105738;28;19948;-72
2023/06/30 11:59:32;;;;;;;;;;;;;;;20.21;100.00;96096.81;5106361;28;19939;-73
2023/06/30 12:01:58;;;;;;;;;;;;;;;20.26;100.00;96098.63;5105576;28;19945;-71
2023/06/30 12:04:25;;;;;;;;;;;;;;;20.29;100.00;96095.41;5106360;28;19944;-72
2023/06/30 12:06:54;;;;;;;;;;;;;;;20.31;100.00;96095.91;5105817;28;19937;-72
2023/06/30 12:09:20;;;;;;;;;;;;;;;20.34;100.00;96092.66;5104985;28;20243;-72
2023/06/30 12:11:46;;;;;;;;;;;;;;;20.40;100.00;96083.50;5105677;28;19941;-72
2023/06/30 12:14:15;;;;;;;;;;;;;;;20.45;100.00;96082.63;5105059;28;19939;-75
2023/06/30 12:16:42;;;;;;;;;;;;;;;20.47;100.00;96075.94;5104568;28;19962;-75
2023/06/30 12:19:08;;;;;;;;;;;;;;;20.54;100.00;96083.56;5105167;28;19946;-73
2023/06/30 12:21:59;;;;;;;;;;;;;;;20.63;100.00;96084.50;5105127;28;20030;-73
2023/06/30 12:24:29;;;;;;;;;;;;;;;20.76;100.00;96090.97;5095063;28;19942;-74
2023/06/30 12:26:55;;;;;;;;;;;;;;;20.83;100.00;96082.59;5104287;28;19948;-73
2023/06/30 12:29:22;;;;;;;;;;;;;;;20.86;100.00;96095.34;5104855;28;19950;-82
2023/06/30 12:31:48;;;;;;;;;;;;;;;20.86;100.00;96079.34;5104272;28;19960;-71
2023/06/30 12:34:32;;;;;;;;;;;;;;;20.88;100.00;96088.63;5105781;28;19946;-72
2023/06/30 12:36:58;;;;;;;;;;;;;;;20.87;100.00;96088.91;5105236;28;19945;-71
2023/06/30 12:39:24;;;;;;;;;;;;;;;20.91;100.00;96081.13;5105692;28;20105;-71